Search for airport 
image banner adimage banner adimage banner ad
image banner ad

PA68 - Bugs

Located in Nazareth, United States

ICAO - PA68, IATA -

Data provided by Airmate  

General information

Coordinates: N40°42'51" W75°18'16"
Elevation is 430 feet MSL.
Magnetic variation is -12° East
View others Airports in Pennsylvania

Operational data

Special qualification required
Current time UTC:
Current local time:
Weather at : KABE - Lehigh Valley Intl ( 13 km )
METAR: KABE 091251Z 23004KT 10SM CLR 10/04 A3009 RMK AO2 SLP190 T01000044 $
TAF: KABE 091120Z 0912/1012 VRB03KT P6SM SCT250 FM091900 15005KT 6SM -RA OVC015 TEMPO 0919/0921 3SM -RA BR OVC010 FM100000 08006KT P6SM VCSH OVC035 FM100600 09005KT P6SM OVC040 WS020/23040KT
View NOTAMs / SUP AIP / TFR affecting this airport [VIEW]
Communications frequencies: [VIEW]

Runways:

RWY identifierQFULength (ft)Width (ft)SurfaceLDA (ft)
13215010GRASS
31215010GRASS

Airport contact information

Address: Nazareth United States

Satellite view of PA68